createdAt,value
2023-04-29T00:01:58.388Z,99740.00
2023-04-29T00:04:26.195Z,99730.00
2023-04-29T00:06:56.170Z,99725.00
2023-04-29T00:09:23.554Z,99727.00
2023-04-29T00:11:51.120Z,99729.00
2023-04-29T00:14:18.467Z,99730.00
2023-04-29T00:16:46.268Z,99724.00
2023-04-29T00:19:13.590Z,99721.00
2023-04-29T00:21:44.453Z,99712.00
2023-04-29T00:24:12.456Z,99714.00
2023-04-29T00:26:40.554Z,99716.00
2023-04-29T00:29:09.533Z,99702.00
2023-04-29T00:31:42.582Z,99703.00
2023-04-29T00:34:10.052Z,99712.00
2023-04-29T00:36:37.337Z,99711.00
2023-04-29T00:39:04.830Z,99704.00
2023-04-29T00:41:33.388Z,99702.00
2023-04-29T00:44:00.674Z,99691.00
2023-04-29T00:46:27.991Z,99691.00
2023-04-29T00:48:55.444Z,99699.00
2023-04-29T00:51:22.985Z,99698.00
2023-04-29T00:53:50.860Z,99704.00
2023-04-29T00:56:20.265Z,99693.00
2023-04-29T00:58:50.650Z,99677.00
2023-04-29T01:01:18.931Z,99689.00
2023-04-29T01:03:46.891Z,99696.00
2023-04-29T01:06:28.464Z,99699.00
2023-04-29T01:09:08.582Z,99690.00
2023-04-29T01:11:42.057Z,99705.00
2023-04-29T01:14:10.385Z,99700.00
2023-04-29T01:16:42.623Z,99703.00
2023-04-29T01:19:22.829Z,99714.00
2023-04-29T01:21:50.315Z,99696.00
2023-04-29T01:24:18.409Z,99704.00
2023-04-29T01:26:53.877Z,99702.00
2023-04-29T01:29:28.168Z,99706.00
2023-04-29T01:32:04.744Z,99710.00
2023-04-29T01:34:38.967Z,99725.00
2023-04-29T01:37:13.899Z,99728.00
2023-04-29T01:39:56.202Z,99751.00
2023-04-29T01:42:29.421Z,99742.00
2023-04-29T01:44:59.808Z,99742.00
2023-04-29T01:47:28.957Z,99728.00
2023-04-29T01:49:56.225Z,99735.00
2023-04-29T01:52:23.501Z,99736.00
2023-04-29T01:54:51.378Z,99734.00
2023-04-29T01:57:18.742Z,99741.00
2023-04-29T01:59:45.962Z,99751.00
2023-04-29T02:02:14.574Z,99738.00
2023-04-29T02:04:42.258Z,99735.00
2023-04-29T02:07:09.600Z,99737.00
2023-04-29T02:09:36.878Z,99738.00
2023-04-29T02:12:05.428Z,99738.00
2023-04-29T02:14:35.054Z,99722.00
2023-04-29T02:17:04.137Z,99744.00
2023-04-29T02:19:31.481Z,99737.00
2023-04-29T02:21:58.751Z,99745.00
2023-04-29T02:24:26.191Z,99732.00
2023-04-29T02:26:53.612Z,99733.00
2023-04-29T02:29:21.561Z,99732.00
2023-04-29T02:31:48.888Z,99728.00
2023-04-29T02:34:16.206Z,99713.00
2023-04-29T02:36:43.490Z,99710.00
2023-04-29T02:39:10.719Z,99713.00
2023-04-29T02:41:37.935Z,99704.00
2023-04-29T02:44:05.366Z,99706.00
2023-04-29T02:46:35.466Z,99716.00
2023-04-29T02:49:03.534Z,99711.00
2023-04-29T02:51:30.868Z,99717.00
2023-04-29T02:53:58.158Z,99722.00
2023-04-29T02:56:25.492Z,99719.00
2023-04-29T02:58:52.777Z,99718.00
2023-04-29T03:01:20.879Z,99716.00
2023-04-29T03:03:48.932Z,99726.00
2023-04-29T03:06:16.308Z,99717.00
2023-04-29T03:08:43.565Z,99713.00
2023-04-29T03:11:10.904Z,99716.00
2023-04-29T03:13:38.271Z,99718.00
2023-04-29T03:16:06.520Z,99707.00
2023-04-29T03:18:33.764Z,99710.00
2023-04-29T03:21:04.043Z,99704.00
2023-04-29T03:23:31.339Z,99704.00
2023-04-29T03:25:58.662Z,99701.00
2023-04-29T03:28:25.973Z,99698.00
2023-04-29T03:30:53.563Z,99710.00
2023-04-29T03:33:20.951Z,99703.00
2023-04-29T03:35:48.201Z,99706.00
2023-04-29T03:38:16.091Z,99711.00
2023-04-29T03:40:44.739Z,99709.00
2023-04-29T03:43:13.315Z,99714.00
2023-04-29T03:45:40.594Z,99704.00
2023-04-29T03:48:08.034Z,99708.00
2023-04-29T03:50:36.210Z,99704.00
2023-04-29T03:53:03.529Z,99708.00
2023-04-29T03:55:31.449Z,99708.00
2023-04-29T03:57:58.714Z,99708.00
2023-04-29T04:00:26.078Z,99709.00
2023-04-29T04:02:53.547Z,99708.00
2023-04-29T04:05:24.386Z,99711.00
2023-04-29T04:07:51.774Z,99713.00
2023-04-29T04:10:19.168Z,99708.00
2023-04-29T04:12:47.214Z,99710.00
2023-04-29T04:15:15.893Z,99714.00
2023-04-29T04:17:43.165Z,99710.00
2023-04-29T04:20:11.545Z,99710.00
2023-04-29T04:22:38.778Z,99714.00
2023-04-29T04:25:07.718Z,99720.00
2023-04-29T04:27:35.267Z,99713.00
2023-04-29T04:30:03.549Z,99717.00
2023-04-29T04:32:30.963Z,99720.00
2023-04-29T04:34:58.572Z,99717.00
2023-04-29T04:37:25.892Z,99724.00
2023-04-29T04:39:53.415Z,99724.00
2023-04-29T04:42:22.406Z,99720.00
2023-04-29T04:44:49.654Z,99729.00
2023-04-29T04:47:17.916Z,99726.00
2023-04-29T04:49:45.583Z,99734.00
2023-04-29T04:52:12.853Z,99729.00
2023-04-29T04:54:40.098Z,99735.00
2023-04-29T04:57:07.453Z,99734.00
2023-04-29T04:59:34.884Z,99732.00
2023-04-29T05:02:02.160Z,99725.00
2023-04-29T05:04:30.242Z,99735.00
2023-04-29T05:06:57.593Z,99732.00
2023-04-29T05:09:26.148Z,99740.00
2023-04-29T05:11:53.748Z,99728.00
2023-04-29T05:14:21.070Z,99738.00
2023-04-29T05:16:48.457Z,99739.00
2023-04-29T05:19:15.726Z,99733.00
2023-04-29T05:21:43.775Z,99734.00
2023-04-29T05:24:11.119Z,99746.00
2023-04-29T05:26:38.712Z,99753.00
2023-04-29T05:29:06.912Z,99747.00
2023-04-29T05:31:34.945Z,99749.00
2023-04-29T05:34:02.718Z,99757.00
2023-04-29T05:36:30.022Z,99759.00
2023-04-29T05:38:58.467Z,99759.00
2023-04-29T05:41:26.280Z,99763.00
2023-04-29T05:43:53.771Z,99761.00
2023-04-29T05:46:22.403Z,99766.00
2023-04-29T05:48:49.759Z,99766.00
2023-04-29T05:51:17.153Z,99775.00
2023-04-29T05:53:44.433Z,99770.00
2023-04-29T05:56:12.428Z,99769.00
2023-04-29T05:58:39.721Z,99771.00
2023-04-29T06:01:07.176Z,99778.00
2023-04-29T06:03:35.333Z,99778.00
2023-04-29T06:06:03.087Z,99782.00
2023-04-29T06:08:30.664Z,99773.00
2023-04-29T06:10:58.011Z,99777.00
2023-04-29T06:13:26.151Z,99785.00
2023-04-29T06:15:53.387Z,99784.00
2023-04-29T06:18:20.719Z,99787.00
2023-04-29T06:20:47.977Z,99794.00
2023-04-29T06:23:17.048Z,99795.00
2023-04-29T06:25:44.287Z,99800.00
2023-04-29T06:28:11.616Z,99802.00
2023-04-29T06:30:39.610Z,99806.00
2023-04-29T06:33:07.425Z,99809.00
2023-04-29T06:35:38.681Z,99804.00
2023-04-29T06:38:07.453Z,99820.00
2023-04-29T06:40:34.989Z,99821.00
2023-04-29T06:43:03.841Z,99819.00
2023-04-29T06:45:31.406Z,99810.00
2023-04-29T06:48:02.692Z,99803.00
2023-04-29T06:50:30.322Z,99807.00
2023-04-29T06:52:57.672Z,99811.00
2023-04-29T06:55:36.202Z,99813.00
2023-04-29T06:58:12.083Z,99817.00
2023-04-29T07:00:39.710Z,99807.00
2023-04-29T07:03:09.331Z,99813.00
2023-04-29T07:05:41.547Z,99826.00
2023-04-29T07:08:10.015Z,99824.00
2023-04-29T07:10:37.336Z,99826.00
2023-04-29T07:13:04.906Z,99828.00
2023-04-29T07:15:35.639Z,99829.00
2023-04-29T07:18:04.698Z,99824.00
2023-04-29T07:20:34.096Z,99835.00
2023-04-29T07:23:02.238Z,99831.00
2023-04-29T07:25:30.510Z,99833.00
2023-04-29T07:27:58.614Z,99836.00
2023-04-29T07:30:49.177Z,99849.00
2023-04-29T07:33:20.605Z,99852.00
2023-04-29T07:35:49.946Z,99841.00
2023-04-29T07:38:26.496Z,99840.00
2023-04-29T07:41:00.237Z,99848.00
2023-04-29T07:43:28.002Z,99850.00
2023-04-29T07:46:10.211Z,99853.00
2023-04-29T07:48:45.963Z,99854.00
2023-04-29T07:51:33.039Z,99854.00
2023-04-29T07:54:15.356Z,99868.00
2023-04-29T07:57:03.494Z,99873.00
2023-04-29T07:59:41.109Z,99866.00
2023-04-29T08:05:01.828Z,99876.00
2023-04-29T08:07:32.469Z,99879.00
2023-04-29T08:10:04.579Z,99879.00
2023-04-29T08:12:37.614Z,99878.00
2023-04-29T08:15:09.922Z,99881.00
2023-04-29T08:17:40.997Z,99882.00
2023-04-29T08:20:11.562Z,99879.00
2023-04-29T08:22:44.082Z,99882.00
2023-04-29T08:25:11.972Z,99881.00
2023-04-29T08:30:30.346Z,99893.00
2023-04-29T08:33:01.575Z,99894.00
2023-04-29T08:35:29.137Z,99893.00
2023-04-29T08:38:13.058Z,99895.00
2023-04-29T08:41:14.864Z,99894.00
2023-04-29T08:43:42.371Z,99907.00
2023-04-29T08:46:10.842Z,99905.00
2023-04-29T08:48:45.169Z,99907.00
2023-04-29T08:51:16.800Z,99903.00
2023-04-29T08:53:52.911Z,99916.00
2023-04-29T08:56:34.778Z,99915.00
2023-04-29T09:00:04.834Z,99915.00
2023-04-29T09:03:06.870Z,99928.00
2023-04-29T09:05:37.098Z,99918.00
2023-04-29T09:08:12.022Z,99933.00
2023-04-29T09:10:44.837Z,99926.00
2023-04-29T09:13:35.710Z,99922.00
2023-04-29T09:19:52.696Z,99935.00
2023-04-29T09:22:26.326Z,99930.00
2023-04-29T09:25:29.635Z,99942.00
2023-04-29T09:27:58.274Z,99960.00
2023-04-29T09:30:26.095Z,99962.00
2023-04-29T09:33:07.796Z,99957.00
2023-04-29T09:35:36.053Z,99962.00
2023-04-29T09:38:11.679Z,99968.00
2023-04-29T09:40:58.380Z,99970.00
2023-04-29T09:43:30.244Z,99972.00
2023-04-29T09:45:57.972Z,99973.00
2023-04-29T09:48:33.630Z,99975.00
2023-04-29T09:51:02.896Z,99983.00
2023-04-29T09:53:38.782Z,99978.00
2023-04-29T09:56:06.820Z,99982.00
2023-04-29T09:58:40.462Z,99989.00
2023-04-29T10:01:08.588Z,99988.00
2023-04-29T10:03:38.159Z,99995.00
2023-04-29T10:06:07.154Z,99989.00
2023-04-29T10:08:37.513Z,99995.00
2023-04-29T10:11:07.486Z,100002.00
2023-04-29T10:13:44.410Z,100002.00
2023-04-29T10:16:36.863Z,99999.00
2023-04-29T10:19:13.831Z,100000.00
2023-04-29T10:22:01.444Z,100008.00
2023-04-29T10:24:36.850Z,100017.00
2023-04-29T10:27:56.558Z,100023.00
2023-04-29T10:34:16.782Z,100021.00
2023-04-29T10:37:05.647Z,100026.00
2023-04-29T10:43:12.154Z,100034.00
2023-04-29T10:46:06.178Z,100030.00
2023-04-29T10:49:25.477Z,100033.00
2023-04-29T10:52:27.817Z,100040.00
2023-04-29T10:55:12.308Z,100037.00
2023-04-29T10:57:51.419Z,100045.00
2023-04-29T11:00:53.857Z,100041.00
2023-04-29T11:04:08.714Z,100047.00
2023-04-29T11:06:55.176Z,100049.00
2023-04-29T11:15:40.407Z,100060.00
2023-04-29T11:18:50.772Z,100061.00
2023-04-29T11:22:14.132Z,100055.00
2023-04-29T11:28:29.922Z,100067.00
2023-04-29T11:31:14.537Z,100058.00
2023-04-29T11:34:01.603Z,100080.00
2023-04-29T11:40:12.638Z,100076.00
2023-04-29T11:43:19.682Z,100082.00
2023-04-29T11:46:32.125Z,100088.00
2023-04-29T11:49:20.389Z,100091.00
2023-04-29T11:52:03.053Z,100111.00
2023-04-29T11:55:30.323Z,100112.00
2023-04-29T11:58:31.413Z,100114.00
2023-04-29T12:01:13.559Z,100122.00
2023-04-29T12:11:11.755Z,100130.00
2023-04-29T12:13:40.570Z,100124.00
2023-04-29T12:16:08.622Z,100132.00
2023-04-29T12:18:36.306Z,100128.00
2023-04-29T12:21:03.828Z,100134.00
2023-04-29T12:23:31.232Z,100128.00
2023-04-29T12:26:00.329Z,100138.00
2023-04-29T12:28:28.219Z,100133.00
2023-04-29T12:30:58.273Z,100142.00
2023-04-29T12:33:27.093Z,100147.00
2023-04-29T12:35:56.889Z,100145.00
2023-04-29T12:38:26.895Z,100140.00
2023-04-29T12:40:54.728Z,100154.00
2023-04-29T12:43:27.432Z,100148.00
2023-04-29T12:46:00.855Z,100151.00
2023-04-29T12:48:33.187Z,100153.00
2023-04-29T12:51:01.921Z,100157.00
2023-04-29T12:53:30.735Z,100166.00
2023-04-29T12:55:58.768Z,100169.00
2023-04-29T12:58:29.483Z,100180.00
2023-04-29T13:00:57.986Z,100176.00
2023-04-29T13:03:25.854Z,100181.00
2023-04-29T13:05:54.058Z,100173.00
2023-04-29T13:08:22.228Z,100190.00
2023-04-29T13:10:49.498Z,100195.00
2023-04-29T13:13:16.778Z,100185.00
2023-04-29T13:15:44.175Z,100191.00
2023-04-29T13:18:12.119Z,100188.00
2023-04-29T13:20:42.043Z,100208.00
2023-04-29T13:23:09.984Z,100197.00
2023-04-29T13:25:37.301Z,100199.00
2023-04-29T13:28:05.002Z,100199.00
2023-04-29T13:30:32.586Z,100203.00
2023-04-29T13:33:09.328Z,100208.00
2023-04-29T13:35:40.793Z,100199.00
2023-04-29T13:38:08.297Z,100213.00
2023-04-29T13:40:39.384Z,100204.00
2023-04-29T13:43:15.459Z,100209.00
2023-04-29T13:45:48.165Z,100205.00
2023-04-29T14:01:17.047Z,100203.00
2023-04-29T14:03:36.041Z,100209.00
2023-04-29T14:06:05.671Z,100207.00
2023-04-29T14:08:32.935Z,100218.00
2023-04-29T14:11:00.562Z,100209.00
2023-04-29T14:13:28.631Z,100211.00
2023-04-29T14:15:56.332Z,100217.00
2023-04-29T14:18:23.589Z,100216.00
2023-04-29T14:20:50.985Z,100222.00
2023-04-29T14:23:19.003Z,100236.00
2023-04-29T14:25:46.786Z,100223.00
2023-04-29T14:28:14.099Z,100234.00
2023-04-29T14:30:43.935Z,100236.00
2023-04-29T14:33:12.796Z,100237.00
2023-04-29T14:35:40.434Z,100227.00
2023-04-29T14:38:07.981Z,100248.00
2023-04-29T14:40:37.389Z,100244.00
2023-04-29T14:43:04.730Z,100249.00
2023-04-29T14:45:32.071Z,100243.00
2023-04-29T14:47:59.590Z,100258.00
2023-04-29T14:50:28.626Z,100248.00
2023-04-29T14:52:57.159Z,100253.00
2023-04-29T14:55:24.396Z,100259.00
2023-04-29T14:57:52.736Z,100256.00
2023-04-29T15:00:20.694Z,100267.00
2023-04-29T15:02:49.962Z,100268.00
2023-04-29T15:05:18.167Z,100262.00
2023-04-29T15:07:45.812Z,100270.00
2023-04-29T15:10:13.193Z,100274.00
2023-04-29T15:12:40.768Z,100276.00
2023-04-29T15:15:10.323Z,100267.00
2023-04-29T15:17:37.698Z,100268.00
2023-04-29T15:20:06.782Z,100270.00
2023-04-29T15:22:34.162Z,100276.00
2023-04-29T15:25:01.485Z,100281.00
2023-04-29T15:27:28.816Z,100275.00
2023-04-29T15:29:57.010Z,100279.00
2023-04-29T15:32:30.616Z,100272.00
2023-04-29T15:34:58.567Z,100273.00
2023-04-29T15:37:27.002Z,100277.00
2023-04-29T15:39:54.687Z,100288.00
2023-04-29T15:42:22.234Z,100286.00
2023-04-29T15:44:49.576Z,100287.00
2023-04-29T15:47:16.995Z,100287.00
2023-04-29T15:49:45.056Z,100284.00
2023-04-29T15:52:12.360Z,100297.00
2023-04-29T15:54:40.467Z,100289.00
2023-04-29T15:57:07.760Z,100297.00
2023-04-29T15:59:35.111Z,100297.00
2023-04-29T16:02:03.030Z,100301.00
2023-04-29T16:04:30.709Z,100314.00
2023-04-29T16:06:58.742Z,100308.00
2023-04-29T16:09:26.020Z,100313.00
2023-04-29T16:11:53.267Z,100315.00
2023-04-29T16:14:20.495Z,100317.00
2023-04-29T16:16:47.883Z,100315.00
2023-04-29T16:19:15.116Z,100314.00
2023-04-29T16:21:44.909Z,100320.00
2023-04-29T16:24:13.137Z,100312.00
2023-04-29T16:26:40.774Z,100322.00
2023-04-29T16:29:08.856Z,100326.00
2023-04-29T16:31:36.229Z,100326.00
2023-04-29T16:34:03.513Z,100320.00
2023-04-29T16:36:31.603Z,100325.00
2023-04-29T16:39:04.902Z,100326.00
2023-04-29T16:41:33.099Z,100334.00
2023-04-29T16:44:00.434Z,100326.00
2023-04-29T16:46:27.753Z,100332.00
2023-04-29T16:48:56.166Z,100334.00
2023-04-29T16:51:24.945Z,100338.00
2023-04-29T16:53:52.458Z,100342.00
2023-04-29T16:56:20.836Z,100337.00
2023-04-29T16:58:48.971Z,100338.00
2023-04-29T17:01:18.747Z,100339.00
2023-04-29T17:03:46.899Z,100352.00
2023-04-29T17:06:14.628Z,100353.00
2023-04-29T17:08:42.336Z,100348.00
2023-04-29T17:11:09.737Z,100351.00
2023-04-29T17:13:37.023Z,100354.00
2023-04-29T17:16:06.287Z,100358.00
2023-04-29T17:18:33.597Z,100359.00
2023-04-29T17:21:02.072Z,100362.00
2023-04-29T17:23:29.895Z,100363.00
2023-04-29T17:25:57.234Z,100365.00
2023-04-29T17:28:24.525Z,100374.00
2023-04-29T17:30:54.942Z,100375.00
2023-04-29T17:33:31.601Z,100391.00
2023-04-29T17:36:00.551Z,100384.00
2023-04-29T17:38:28.687Z,100389.00
2023-04-29T17:40:56.043Z,100388.00
2023-04-29T17:43:23.375Z,100390.00
2023-04-29T17:45:50.679Z,100395.00
2023-04-29T17:48:19.703Z,100407.00
2023-04-29T17:50:47.765Z,100408.00
2023-04-29T17:53:15.135Z,100405.00
2023-04-29T17:55:44.119Z,100411.00
2023-04-29T17:58:11.439Z,100403.00
2023-04-29T18:00:40.975Z,100404.00
2023-04-29T18:03:08.474Z,100407.00
2023-04-29T18:05:35.939Z,100416.00
2023-04-29T18:08:04.262Z,100412.00
2023-04-29T18:10:31.587Z,100411.00
2023-04-29T18:12:59.040Z,100413.00
2023-04-29T18:15:26.402Z,100417.00
2023-04-29T18:17:53.880Z,100417.00
2023-04-29T18:20:21.804Z,100421.00
2023-04-29T18:22:49.745Z,100418.00
2023-04-29T18:25:17.822Z,100414.00
2023-04-29T18:27:45.079Z,100421.00
2023-04-29T18:30:14.109Z,100422.00
2023-04-29T18:32:41.715Z,100426.00
2023-04-29T18:35:09.530Z,100420.00
2023-04-29T18:37:36.871Z,100428.00
2023-04-29T18:40:05.391Z,100437.00
2023-04-29T18:42:33.377Z,100442.00
2023-04-29T18:45:00.666Z,100443.00
2023-04-29T18:47:28.024Z,100445.00
2023-04-29T18:49:55.498Z,100446.00
2023-04-29T18:52:23.098Z,100448.00
2023-04-29T18:54:50.430Z,100449.00
2023-04-29T18:57:17.788Z,100455.00
2023-04-29T18:59:46.375Z,100456.00
2023-04-29T19:02:14.265Z,100461.00
2023-04-29T19:04:41.699Z,100468.00
2023-04-29T19:07:09.088Z,100472.00
2023-04-29T19:09:36.482Z,100470.00
2023-04-29T19:12:05.141Z,100481.00
2023-04-29T19:14:33.328Z,100483.00
2023-04-29T19:17:01.339Z,100478.00
2023-04-29T19:19:29.493Z,100479.00
2023-04-29T19:21:57.077Z,100486.00
2023-04-29T19:24:24.601Z,100489.00
2023-04-29T19:26:52.002Z,100484.00
2023-04-29T19:29:19.483Z,100487.00
2023-04-29T19:31:46.902Z,100488.00
2023-04-29T19:34:15.514Z,100488.00
2023-04-29T19:36:42.780Z,100490.00
2023-04-29T19:39:11.027Z,100501.00
2023-04-29T19:41:38.564Z,100513.00
2023-04-29T19:44:06.212Z,100497.00
2023-04-29T19:46:33.852Z,100499.00
2023-04-29T19:49:01.587Z,100500.00
2023-04-29T19:51:30.381Z,100511.00
2023-04-29T19:54:00.785Z,100502.00
2023-04-29T19:56:28.144Z,100512.00
2023-04-29T19:58:56.208Z,100514.00
2023-04-29T20:01:23.614Z,100512.00
2023-04-29T20:03:50.959Z,100508.00
2023-04-29T20:06:19.099Z,100512.00
2023-04-29T20:08:47.320Z,100515.00
2023-04-29T20:11:14.906Z,100508.00
2023-04-29T20:13:42.220Z,100517.00
2023-04-29T20:16:10.431Z,100511.00
2023-04-29T20:18:40.032Z,100510.00
2023-04-29T20:21:07.548Z,100522.00
2023-04-29T20:23:34.900Z,100514.00
2023-04-29T20:26:03.551Z,100527.00
2023-04-29T20:28:30.871Z,100524.00
2023-04-29T20:30:58.231Z,100526.00
2023-04-29T20:33:25.574Z,100531.00
2023-04-29T20:35:53.595Z,100526.00
2023-04-29T20:38:21.925Z,100532.00
2023-04-29T20:40:53.254Z,100530.00
2023-04-29T20:43:21.340Z,100536.00
2023-04-29T20:45:49.603Z,100539.00
2023-04-29T20:48:17.021Z,100542.00
2023-04-29T20:50:44.389Z,100536.00
2023-04-29T20:53:11.804Z,100542.00
2023-04-29T20:55:39.181Z,100539.00
2023-04-29T20:58:06.544Z,100537.00
2023-04-29T21:00:34.699Z,100540.00
2023-04-29T21:03:02.167Z,100545.00
2023-04-29T21:05:29.648Z,100534.00
2023-04-29T21:07:57.997Z,100536.00
2023-04-29T21:10:25.259Z,100537.00
2023-04-29T21:12:52.606Z,100540.00
2023-04-29T21:15:20.078Z,100542.00
2023-04-29T21:17:48.248Z,100550.00
2023-04-29T21:20:16.434Z,100541.00
2023-04-29T21:22:44.384Z,100545.00
2023-04-29T21:25:11.667Z,100541.00
2023-04-29T21:27:38.992Z,100538.00
2023-04-29T21:30:07.394Z,100549.00
2023-04-29T21:32:35.365Z,100546.00
2023-04-29T21:35:03.695Z,100549.00
2023-04-29T21:37:31.134Z,100540.00
2023-04-29T21:39:59.566Z,100550.00
2023-04-29T21:42:27.457Z,100559.00
2023-04-29T21:44:57.037Z,100547.00
2023-04-29T21:47:24.515Z,100557.00
2023-04-29T21:49:52.843Z,100551.00
2023-04-29T21:52:21.332Z,100553.00
2023-04-29T21:54:48.551Z,100552.00
2023-04-29T21:57:15.868Z,100548.00
2023-04-29T21:59:43.188Z,100558.00
2023-04-29T22:02:21.114Z,100560.00
2023-04-29T22:04:49.884Z,100553.00
2023-04-29T22:07:17.559Z,100551.00
2023-04-29T22:09:48.917Z,100556.00
2023-04-29T22:12:17.188Z,100564.00
2023-04-29T22:14:44.518Z,100568.00
2023-04-29T22:17:11.973Z,100556.00
2023-04-29T22:19:39.749Z,100563.00
2023-04-29T22:22:07.131Z,100573.00
2023-04-29T22:24:34.463Z,100575.00
2023-04-29T22:27:02.852Z,100578.00
2023-04-29T22:29:30.152Z,100578.00
2023-04-29T22:31:57.481Z,100569.00
2023-04-29T22:34:24.847Z,100574.00
2023-04-29T22:36:52.095Z,100573.00
2023-04-29T22:39:19.390Z,100579.00
2023-04-29T22:41:46.657Z,100572.00
2023-04-29T22:44:15.286Z,100581.00
2023-04-29T22:46:42.557Z,100569.00
2023-04-29T22:49:09.951Z,100575.00
2023-04-29T22:51:37.203Z,100571.00
2023-04-29T22:54:04.600Z,100573.00
2023-04-29T22:56:31.928Z,100586.00
2023-04-29T22:58:59.275Z,100587.00
2023-04-29T23:01:27.415Z,100587.00
2023-04-29T23:03:55.585Z,100572.00
2023-04-29T23:06:23.234Z,100577.00
2023-04-29T23:08:50.635Z,100587.00
2023-04-29T23:11:17.966Z,100591.00
2023-04-29T23:13:45.236Z,100587.00
2023-04-29T23:16:12.622Z,100591.00
2023-04-29T23:18:40.686Z,100590.00
2023-04-29T23:21:07.963Z,100587.00
2023-04-29T23:23:35.264Z,100593.00
2023-04-29T23:26:02.593Z,100591.00
2023-04-29T23:28:29.911Z,100590.00
2023-04-29T23:30:57.261Z,100593.00
2023-04-29T23:33:24.575Z,100596.00
2023-04-29T23:35:53.202Z,100605.00
2023-04-29T23:38:20.708Z,100605.00
2023-04-29T23:40:48.038Z,100608.00
2023-04-29T23:43:15.329Z,100599.00
2023-04-29T23:45:44.910Z,100604.00
2023-04-29T23:48:12.352Z,100594.00
2023-04-29T23:50:39.616Z,100597.00
2023-04-29T23:53:07.847Z,100600.00
2023-04-29T23:55:35.126Z,100597.00
2023-04-29T23:58:02.517Z,100583.00
